Time;durP1;ratioP1;P1;durP2;ratioP2;P2;SDS_P1;SDS_P2;PMS_P1;PMS_P2;Temp;Humidity;BMP_temperature;BMP_pressure;BME280_temperature;BME280_humidity;BME280_pressure;Samples;Min_cycle;Max_cycle;Signal;HPM_P1;HPM_P2
2024/03/01 00:00:48;;;;;;;9.07;0.80;;;;;;;27.67;nan;97965.06;7387876;19;20039;-85
2024/03/01 00:03:14;;;;;;;0.47;0.47;;;;;;;27.65;nan;97967.81;7389730;19;20010;-85
2024/03/01 00:05:40;;;;;;;0.50;0.50;;;;;;;27.59;nan;97968.25;7390574;19;20460;-85
2024/03/01 00:08:06;;;;;;;0.47;0.47;;;;;;;27.52;nan;97957.16;7392795;19;20022;-85
2024/03/01 00:10:32;;;;;;;2.05;0.43;;;;;;;27.78;nan;97964.91;7392015;19;20771;-84
2024/03/01 00:12:59;;;;;;;0.47;0.47;;;;;;;28.25;nan;97967.91;7392527;19;20022;-85
2024/03/01 00:15:25;;;;;;;0.50;0.50;;;;;;;28.47;nan;97968.22;7390075;19;20022;-85
2024/03/01 00:17:51;;;;;;;0.22;0.22;;;;;;;28.40;nan;97966.44;7390706;19;20427;-85
2024/03/01 00:20:17;;;;;;;2.47;0.80;;;;;;;28.52;nan;97964.88;7390173;19;20021;-85
2024/03/01 00:22:43;;;;;;;0.45;0.45;;;;;;;29.33;nan;97971.41;7392216;19;20035;-85
2024/03/01 00:25:09;;;;;;;0.65;0.65;;;;;;;29.07;nan;97958.75;7389447;19;20690;-85
2024/03/01 00:27:35;;;;;;;0.15;0.15;;;;;;;29.01;nan;97949.91;7390604;19;20030;-84
2024/03/01 00:30:01;;;;;;;0.20;0.20;;;;;;;28.82;nan;97950.50;7391232;19;20350;-84
2024/03/01 00:32:28;;;;;;;0.63;0.35;;;;;;;28.64;nan;97950.41;7391266;19;20018;-84
2024/03/01 00:34:54;;;;;;;0.17;0.17;;;;;;;29.09;nan;97950.25;7391993;19;20347;-84
2024/03/01 00:37:20;;;;;;;0.38;0.38;;;;;;;28.89;nan;97937.91;7388029;19;20014;-84
2024/03/01 00:39:46;;;;;;;18.52;1.15;;;;;;;28.93;nan;97949.56;7388624;19;20501;-84
2024/03/01 00:42:12;;;;;;;0.43;0.43;;;;;;;29.32;nan;97944.13;7387961;19;20507;-84
2024/03/01 00:44:39;;;;;;;0.30;0.30;;;;;;;29.53;nan;97926.38;7389060;19;20086;-84
2024/03/01 00:47:06;;;;;;;0.20;0.20;;;;;;;28.84;nan;97933.38;7392696;19;20646;-84
2024/03/01 00:49:32;;;;;;;2.47;0.85;;;;;;;28.87;nan;97934.97;7388502;19;20027;-84
2024/03/01 00:51:58;;;;;;;4.25;0.65;;;;;;;28.89;nan;97932.19;7391793;19;20059;-84
2024/03/01 00:54:24;;;;;;;0.52;0.52;;;;;;;28.87;nan;97926.34;7390178;19;20015;-84
2024/03/01 00:56:51;;;;;;;0.30;0.30;;;;;;;28.39;nan;97928.47;7388200;19;20054;-84
2024/03/01 00:59:22;;;;;;;1.67;0.75;;;;;;;27.92;nan;97933.38;7387586;19;20374;-84
2024/03/01 01:01:49;;;;;;;3.83;1.25;;;;;;;27.92;nan;97921.91;7391873;19;20014;-84
2024/03/01 01:04:15;;;;;;;2.22;1.10;;;;;;;27.82;nan;97910.00;7388362;19;20366;-84
2024/03/01 01:06:41;;;;;;;0.25;0.25;;;;;;;27.68;nan;97915.03;7390097;19;20015;-84
2024/03/01 01:09:08;;;;;;;0.68;0.68;;;;;;;27.68;nan;97898.59;7388778;19;20031;-83
2024/03/01 01:11:34;;;;;;;1.05;0.60;;;;;;;27.58;nan;97897.38;7387567;19;20550;-84
2024/03/01 01:14:00;;;;;;;1.35;0.60;;;;;;;27.39;nan;97889.28;7390119;19;20019;-84
2024/03/01 01:16:26;;;;;;;0.25;0.25;;;;;;;27.40;nan;97885.78;7385855;19;20010;-84
2024/03/01 01:18:53;;;;;;;0.95;0.70;;;;;;;27.60;nan;97880.31;7387897;19;20014;-85
2024/03/01 01:21:19;;;;;;;1.05;0.63;;;;;;;27.76;nan;97881.09;7389848;19;20018;-84
2024/03/01 01:23:45;;;;;;;0.30;0.30;;;;;;;27.91;nan;97879.66;7388200;19;20023;-84
2024/03/01 01:26:11;;;;;;;0.20;0.20;;;;;;;28.33;nan;97878.78;7388110;19;20162;-84
2024/03/01 01:28:38;;;;;;;0.22;0.22;;;;;;;28.25;nan;97887.75;7389639;19;20053;-84
2024/03/01 01:31:07;;;;;;;0.30;0.30;;;;;;;28.33;nan;97890.97;7389616;19;20022;-84
2024/03/01 01:33:34;;;;;;;1.30;0.68;;;;;;;28.88;nan;97893.44;7387252;19;20014;-84
2024/03/01 01:36:00;;;;;;;0.32;0.32;;;;;;;29.18;nan;97878.31;7388440;19;20053;-84
2024/03/01 01:38:26;;;;;;;0.50;0.50;;;;;;;29.56;nan;97867.66;7387967;19;20014;-84
2024/03/01 01:40:52;;;;;;;0.32;0.32;;;;;;;29.77;nan;97867.13;7388809;19;20655;-85
2024/03/01 01:43:18;;;;;;;0.20;0.20;;;;;;;30.02;nan;97857.31;7387919;19;20365;-84
2024/03/01 01:45:44;;;;;;;4.18;0.60;;;;;;;29.63;nan;97842.81;7387641;19;20019;-84
2024/03/01 01:48:11;;;;;;;0.35;0.28;;;;;;;29.69;nan;97843.78;7386903;19;20022;-84
2024/03/01 01:50:38;;;;;;;0.68;0.68;;;;;;;29.87;nan;97835.94;7388763;19;20015;-84
2024/03/01 01:53:05;;;;;;;16.65;2.70;;;;;;;29.60;nan;97826.94;7390184;19;20049;-83
2024/03/01 01:55:32;;;;;;;0.40;0.40;;;;;;;29.48;nan;97809.97;7387506;19;20040;-83
2024/03/01 01:58:01;;;;;;;0.10;0.10;;;;;;;29.30;nan;97803.53;7387359;19;20081;-84
2024/03/01 02:00:30;;;;;;;10.43;1.35;;;;;;;29.43;nan;97799.75;7391915;19;20433;-84
2024/03/01 02:02:57;;;;;;;0.30;0.30;;;;;;;29.39;nan;97793.09;7390448;19;20026;-84
2024/03/01 02:05:25;;;;;;;1.55;0.75;;;;;;;29.00;nan;97777.16;7382525;19;20092;-85
2024/03/01 02:07:51;;;;;;;1.75;1.00;;;;;;;28.92;nan;97782.56;7386161;19;20011;-84
2024/03/01 02:10:17;;;;;;;0.52;0.40;;;;;;;28.95;nan;97769.81;7390962;19;20341;-85
2024/03/01 02:12:53;;;;;;;0.22;0.22;;;;;;;28.99;nan;97775.69;7399213;19;20018;-87
2024/03/01 02:15:20;;;;;;;0.20;0.20;;;;;;;28.75;nan;97771.81;7394039;19;20034;-87
2024/03/01 02:17:46;;;;;;;0.30;0.30;;;;;;;28.69;nan;97767.97;7395442;19;20022;-86
2024/03/01 02:20:12;;;;;;;0.28;0.28;;;;;;;28.69;nan;97757.25;7396998;19;20007;-87
2024/03/01 02:22:39;;;;;;;0.60;0.60;;;;;;;28.75;nan;97751.03;7399540;19;20070;-89
2024/03/01 02:25:05;;;;;;;3.40;1.08;;;;;;;28.63;nan;97744.78;7395305;19;20240;-89
2024/03/01 02:27:31;;;;;;;8.73;0.50;;;;;;;28.74;nan;97758.16;7395664;19;20018;-87
2024/03/01 02:29:57;;;;;;;0.20;0.20;;;;;;;29.02;nan;97756.47;7395407;19;20022;-86
2024/03/01 02:32:24;;;;;;;1.30;0.73;;;;;;;29.28;nan;97751.81;7396321;19;20014;-87
2024/03/01 02:34:50;;;;;;;0.20;0.20;;;;;;;29.42;nan;97735.16;7394365;19;20019;-86
2024/03/01 02:37:16;;;;;;;0.43;0.40;;;;;;;29.76;nan;97732.88;7395384;19;20066;-87
2024/03/01 02:39:42;;;;;;;0.20;0.20;;;;;;;30.01;nan;97725.91;7394190;19;20074;-87
2024/03/01 02:42:08;;;;;;;0.10;0.10;;;;;;;29.87;nan;97720.38;7398220;19;20472;-87
2024/03/01 02:44:35;;;;;;;0.22;0.22;;;;;;;29.92;nan;97716.25;7395413;19;20007;-87
2024/03/01 02:47:01;;;;;;;0.63;0.63;;;;;;;29.88;nan;97704.63;7395904;19;20504;-87
2024/03/01 02:49:27;;;;;;;0.20;0.20;;;;;;;29.99;nan;97695.00;7393950;19;20018;-88
2024/03/01 02:51:53;;;;;;;3.30;0.98;;;;;;;30.21;nan;97695.06;7397906;19;20014;-91
2024/03/01 02:54:19;;;;;;;2.80;0.60;;;;;;;30.43;nan;97687.25;7393999;19;20038;-87
2024/03/01 02:56:45;;;;;;;3.60;1.00;;;;;;;30.11;nan;97683.19;7393903;19;20018;-86
2024/03/01 02:59:11;;;;;;;22.05;1.75;;;;;;;28.88;nan;97684.22;7394577;19;20468;-86
2024/03/01 03:01:38;;;;;;;0.38;0.38;;;;;;;28.64;nan;97666.03;7397155;19;20098;-87
2024/03/01 03:04:04;;;;;;;0.47;0.47;;;;;;;28.61;nan;97670.94;7395386;19;20026;-87
2024/03/01 03:06:30;;;;;;;0.85;0.63;;;;;;;28.47;nan;97661.75;7391158;19;20011;-87
2024/03/01 03:08:56;;;;;;;0.20;0.20;;;;;;;28.35;nan;97653.38;7393405;19;20018;-87
2024/03/01 03:11:22;;;;;;;0.90;0.90;;;;;;;28.20;nan;97639.88;7394045;19;20030;-87
2024/03/01 03:13:48;;;;;;;0.15;0.15;;;;;;;28.34;nan;97639.72;7396229;19;20396;-87
2024/03/01 03:16:15;;;;;;;0.17;0.13;;;;;;;28.78;nan;97635.13;7396345;19;20099;-87
2024/03/01 03:18:41;;;;;;;0.43;0.30;;;;;;;29.03;nan;97638.28;7395186;19;20010;-87
2024/03/01 03:21:08;;;;;;;0.30;0.30;;;;;;;29.36;nan;97623.06;7394207;19;20025;-87
2024/03/01 03:23:34;;;;;;;0.40;0.40;;;;;;;29.32;nan;97625.78;7395168;19;20103;-88
2024/03/01 03:26:00;;;;;;;0.32;0.32;;;;;;;29.25;nan;97626.94;7391964;19;20455;-88
2024/03/01 03:28:26;;;;;;;1.38;0.88;;;;;;;29.26;nan;97616.94;7393179;19;20092;-87
2024/03/01 03:30:52;;;;;;;8.70;0.60;;;;;;;28.91;nan;97605.53;7395268;19;20018;-88
2024/03/01 03:33:18;;;;;;;0.55;0.55;;;;;;;28.73;nan;97593.34;7394072;19;20011;-87
2024/03/01 03:35:44;;;;;;;0.40;0.25;;;;;;;29.00;nan;97587.28;7393050;19;20361;-86
2024/03/01 03:38:10;;;;;;;1.70;0.95;;;;;;;29.22;nan;97576.66;7396887;19;20022;-87
2024/03/01 03:40:36;;;;;;;0.30;0.30;;;;;;;29.11;nan;97574.78;7395027;19;20014;-87
2024/03/01 03:43:03;;;;;;;0.22;0.22;;;;;;;29.08;nan;97558.91;7393471;19;20022;-87
2024/03/01 03:45:29;;;;;;;0.30;0.30;;;;;;;29.55;nan;97553.50;7391648;19;20014;-88
2024/03/01 03:47:55;;;;;;;0.17;0.17;;;;;;;29.71;nan;97542.59;7394493;19;20010;-88
2024/03/01 03:50:24;;;;;;;0.75;0.70;;;;;;;29.75;nan;97539.88;7393252;19;20019;-87
2024/03/01 03:52:50;;;;;;;0.30;0.30;;;;;;;29.06;nan;97541.63;7392122;19;20033;-87
2024/03/01 03:55:16;;;;;;;0.30;0.30;;;;;;;28.70;nan;97532.38;7391019;19;20018;-88
2024/03/01 03:57:43;;;;;;;0.30;0.30;;;;;;;29.03;nan;97522.88;7394986;19;20018;-88
2024/03/01 04:00:14;;;;;;;1.58;0.40;;;;;;;29.02;nan;97521.41;7392437;19;20025;-88
2024/03/01 04:02:40;;;;;;;0.35;0.35;;;;;;;29.09;nan;97520.22;7392452;19;20082;-88
2024/03/01 04:05:06;;;;;;;1.67;0.65;;;;;;;29.18;nan;97513.44;7393472;19;20018;-88
2024/03/01 04:07:33;;;;;;;2.28;0.88;;;;;;;28.96;nan;97524.03;7393611;19;20018;-88
2024/03/01 04:09:59;;;;;;;0.32;0.32;;;;;;;28.82;nan;97509.19;7393417;19;20082;-88
2024/03/01 04:12:25;;;;;;;0.98;0.47;;;;;;;28.71;nan;97496.63;7390738;19;20046;-88
2024/03/01 04:14:51;;;;;;;1.90;0.90;;;;;;;28.17;nan;97489.47;7391352;19;20018;-88
2024/03/01 04:17:17;;;;;;;0.70;0.38;;;;;;;28.33;nan;97490.09;7390971;19;20010;-88
2024/03/01 04:19:43;;;;;;;2.72;0.55;;;;;;;28.40;nan;97483.22;7390474;19;20035;-88
2024/03/01 04:22:13;;;;;;;0.60;0.60;;;;;;;28.46;nan;97480.59;7394494;19;20018;-88
2024/03/01 04:24:39;;;;;;;0.17;0.13;;;;;;;28.87;nan;97464.97;7391029;19;20015;-88
2024/03/01 04:27:05;;;;;;;1.10;0.75;;;;;;;28.89;nan;97462.19;7392324;19;20022;-88
2024/03/01 04:29:31;;;;;;;5.25;1.00;;;;;;;28.96;nan;97461.00;7391913;19;20022;-87
2024/03/01 04:31:57;;;;;;;0.20;0.20;;;;;;;29.12;nan;97450.13;7394404;19;20460;-88
2024/03/01 04:34:23;;;;;;;1.52;0.85;;;;;;;29.36;nan;97439.53;7390948;19;20018;-88
2024/03/01 04:36:49;;;;;;;13.70;1.00;;;;;;;29.45;nan;97441.28;7392104;19;20468;-88
2024/03/01 04:39:16;;;;;;;1.95;0.60;;;;;;;29.48;nan;97439.94;7391770;19;20341;-87
2024/03/01 04:41:42;;;;;;;0.35;0.35;;;;;;;29.41;nan;97434.66;7391197;19;20014;-88
2024/03/01 04:44:08;;;;;;;4.47;1.08;;;;;;;28.94;nan;97443.72;7393791;19;20019;-87
2024/03/01 04:46:38;;;;;;;0.20;0.20;;;;;;;28.86;nan;97423.38;7389335;19;20021;-88
2024/03/01 04:49:05;;;;;;;0.28;0.28;;;;;;;29.17;nan;97425.97;7391220;19;20021;-88
2024/03/01 04:51:31;;;;;;;0.22;0.22;;;;;;;29.14;nan;97412.91;7394983;19;20016;-88
2024/03/01 04:53:57;;;;;;;15.77;0.98;;;;;;;29.18;nan;97398.75;7391018;19;20022;-88
2024/03/01 04:56:23;;;;;;;16.90;2.38;;;;;;;29.32;nan;97387.78;7388805;19;20035;-88
2024/03/01 04:58:49;;;;;;;0.50;0.50;;;;;;;29.27;nan;97379.69;7389245;19;20038;-88
2024/03/01 05:01:16;;;;;;;0.32;0.32;;;;;;;29.24;nan;97376.00;7393504;19;20368;-88
2024/03/01 05:03:46;;;;;;;0.30;0.30;;;;;;;29.41;nan;97372.28;7390165;19;20010;-88
2024/03/01 05:06:12;;;;;;;0.52;0.52;;;;;;;29.29;nan;97360.44;7387799;19;20014;-88
2024/03/01 05:08:38;;;;;;;0.40;0.40;;;;;;;29.18;nan;97350.00;7389439;19;20010;-88
2024/03/01 05:11:04;;;;;;;0.75;0.45;;;;;;;29.40;nan;97342.16;7389302;19;20128;-88
2024/03/01 05:13:30;;;;;;;0.20;0.20;;;;;;;30.12;nan;97337.25;7390992;19;20018;-88
2024/03/01 05:15:56;;;;;;;0.10;0.10;;;;;;;30.15;nan;97330.19;7389697;19;20042;-88
2024/03/01 05:18:22;;;;;;;0.73;0.73;;;;;;;30.19;nan;97341.78;7390527;19;20839;-88
2024/03/01 05:20:48;;;;;;;0.45;0.45;;;;;;;30.38;nan;97329.44;7389201;19;20090;-88
2024/03/01 05:23:15;;;;;;;0.20;0.20;;;;;;;30.29;nan;97327.72;7390973;19;20051;-88
2024/03/01 05:25:42;;;;;;;0.20;0.20;;;;;;;30.31;nan;97319.19;7388669;19;20015;-88
2024/03/01 05:28:09;;;;;;;3.80;0.32;;;;;;;30.42;nan;97323.81;7391384;19;20401;-89
2024/03/01 05:30:37;;;;;;;0.38;0.38;;;;;;;30.38;nan;97320.81;7388840;19;20010;-88
2024/03/01 05:33:04;;;;;;;0.32;0.32;;;;;;;30.30;nan;97320.56;7389006;19;20488;-88
2024/03/01 05:35:30;;;;;;;0.32;0.32;;;;;;;30.27;nan;97313.28;7388290;19;20059;-88
2024/03/01 05:37:58;;;;;;;0.55;0.38;;;;;;;30.30;nan;97317.69;7389289;19;20048;-88
2024/03/01 05:40:24;;;;;;;25.15;1.05;;;;;;;30.43;nan;97313.78;7390575;19;20011;-88
2024/03/01 05:42:51;;;;;;;0.25;0.25;;;;;;;30.55;nan;97302.63;7390621;19;20022;-88
2024/03/01 05:45:17;;;;;;;0.20;0.20;;;;;;;31.61;nan;97286.69;7391762;19;20049;-87
2024/03/01 05:47:44;;;;;;;0.47;0.47;;;;;;;31.69;nan;97275.34;7398149;19;20453;-88
2024/03/01 05:50:13;;;;;;;0.30;0.30;;;;;;;31.82;nan;97279.97;7397982;19;20057;-88
2024/03/01 05:52:41;;;;;;;0.20;0.20;;;;;;;32.07;nan;97270.47;7397035;19;20428;-88
2024/03/01 05:55:08;;;;;;;0.13;0.13;;;;;;;31.82;nan;97251.91;7395060;19;20025;-88
2024/03/01 05:57:36;;;;;;;0.10;0.10;;;;;;;31.77;nan;97258.28;7396874;19;20018;-88
2024/03/01 06:00:17;;;;;;;0.20;0.20;;;;;;;32.09;nan;97250.34;7398231;19;20479;-87
2024/03/01 06:02:45;;;;;;;3.65;0.47;;;;;;;32.23;nan;97239.09;7400818;19;20018;-88
2024/03/01 06:05:12;;;;;;;0.75;0.60;;;;;;;32.12;nan;97231.69;7396438;19;20388;-88
2024/03/01 06:07:38;;;;;;;0.10;0.10;;;;;;;32.30;nan;97228.44;7398687;19;20041;-88
2024/03/01 06:10:05;;;;;;;1.08;0.65;;;;;;;32.29;nan;97213.31;7397596;19;20401;-88
2024/03/01 06:12:31;;;;;;;0.63;0.63;;;;;;;32.31;nan;97204.72;7394053;19;20014;-88
2024/03/01 06:14:57;;;;;;;0.10;0.10;;;;;;;32.13;nan;97202.19;7399946;19;20026;-87
2024/03/01 06:17:23;;;;;;;6.47;0.65;;;;;;;31.87;nan;97201.63;7394893;19;20085;-87
2024/03/01 06:19:49;;;;;;;0.20;0.20;;;;;;;31.84;nan;97185.00;7395105;19;20479;-87
2024/03/01 06:22:15;;;;;;;2.30;0.70;;;;;;;31.84;nan;97185.00;7394756;19;20014;-87
2024/03/01 06:24:41;;;;;;;0.10;0.10;;;;;;;31.87;nan;97172.13;7394139;19;20042;-87
2024/03/01 06:27:07;;;;;;;18.67;1.35;;;;;;;31.88;nan;97162.06;7400808;19;20019;-88
2024/03/01 06:29:33;;;;;;;1.38;1.27;;;;;;;31.96;nan;97153.63;7396235;19;20086;-87
2024/03/01 06:32:00;;;;;;;0.57;0.57;;;;;;;32.06;nan;97156.69;7397313;19;20030;-88
2024/03/01 06:34:26;;;;;;;4.38;0.57;;;;;;;32.21;nan;97149.03;7397759;19;20027;-88
2024/03/01 06:36:52;;;;;;;0.40;0.30;;;;;;;32.13;nan;97135.22;7394236;19;20130;-88
2024/03/01 06:39:18;;;;;;;1.45;0.73;;;;;;;31.87;nan;97149.81;7399596;19;20070;-88
2024/03/01 06:41:44;;;;;;;3.63;1.00;;;;;;;31.91;nan;97132.63;7395645;19;20025;-88
2024/03/01 06:44:11;;;;;;;0.35;0.35;;;;;;;31.90;nan;97133.31;7396501;19;20015;-88
2024/03/01 06:46:37;;;;;;;3.53;0.85;;;;;;;31.77;nan;97122.97;7393502;19;20602;-88
2024/03/01 06:49:03;;;;;;;5.18;1.38;;;;;;;31.70;nan;97112.75;7399782;19;20027;-88
2024/03/01 06:51:29;;;;;;;0.68;0.68;;;;;;;31.60;nan;97109.69;7398535;19;20011;-88
2024/03/01 06:53:55;;;;;;;14.52;0.82;;;;;;;31.26;nan;97110.38;7395378;19;20018;-88
2024/03/01 06:56:22;;;;;;;0.20;0.20;;;;;;;31.14;nan;97097.91;7389099;19;20011;-87
2024/03/01 06:58:50;;;;;;;1.08;0.77;;;;;;;31.11;nan;97091.38;7394310;19;20116;-88
2024/03/01 07:01:16;;;;;;;0.40;0.40;;;;;;;30.99;nan;97091.06;7396813;19;20054;-87
2024/03/01 07:03:42;;;;;;;0.90;0.80;;;;;;;31.16;nan;97087.16;7393592;19;20029;-88
2024/03/01 07:06:08;;;;;;;1.75;0.82;;;;;;;31.02;nan;97083.97;7392016;19;20022;-87
2024/03/01 07:08:34;;;;;;;5.38;0.50;;;;;;;31.00;nan;97088.94;7394880;19;20353;-86
2024/03/01 07:11:03;;;;;;;10.75;1.60;;;;;;;30.89;nan;97081.50;7393000;19;20015;-88
2024/03/01 07:13:29;;;;;;;0.28;0.25;;;;;;;31.33;nan;97077.47;7398769;19;20410;-88
2024/03/01 07:15:56;;;;;;;0.22;0.22;;;;;;;31.81;nan;97077.00;7391712;19;20019;-88
2024/03/01 07:18:22;;;;;;;0.30;0.30;;;;;;;31.93;nan;97059.94;7393536;19;20026;-89
2024/03/01 07:20:48;;;;;;;0.10;0.10;;;;;;;31.73;nan;97056.72;7394203;19;20361;-87
2024/03/01 07:23:14;;;;;;;0.30;0.30;;;;;;;31.48;nan;97051.88;7394527;19;20022;-89
2024/03/01 07:25:40;;;;;;;7.47;0.52;;;;;;;31.47;nan;97047.56;7396443;19;20018;-89
2024/03/01 07:28:06;;;;;;;2.83;0.75;;;;;;;31.25;nan;97027.69;7393917;19;20432;-89
2024/03/01 07:30:32;;;;;;;0.85;0.45;;;;;;;31.27;nan;97037.06;7395432;19;20018;-88
2024/03/01 07:32:58;;;;;;;0.40;0.40;;;;;;;31.19;nan;97028.25;7395633;19;20464;-90
2024/03/01 07:35:24;;;;;;;0.10;0.10;;;;;;;30.99;nan;97015.63;7396540;19;20369;-89
2024/03/01 07:37:50;;;;;;;0.10;0.10;;;;;;;30.84;nan;97011.66;7393983;19;20375;-88
2024/03/01 07:40:17;;;;;;;1.02;0.45;;;;;;;30.76;nan;97005.00;7393190;19;20014;-90
2024/03/01 07:42:43;;;;;;;0.15;0.15;;;;;;;30.52;nan;97005.19;7395232;19;20018;-90
2024/03/01 07:45:10;;;;;;;0.40;0.40;;;;;;;30.88;nan;96999.56;7392272;19;20019;-90
2024/03/01 07:47:36;;;;;;;0.15;0.15;;;;;;;31.06;nan;96992.03;7397343;19;20028;-88
2024/03/01 07:50:02;;;;;;;0.10;0.10;;;;;;;30.91;nan;96964.44;7395212;19;20014;-90
2024/03/01 07:52:29;;;;;;;0.15;0.15;;;;;;;30.78;nan;96961.94;7391339;19;20034;-90
2024/03/01 07:54:55;;;;;;;0.10;0.10;;;;;;;30.59;nan;96947.19;7391459;19;20018;-90
2024/03/01 07:57:22;;;;;;;15.20;0.70;;;;;;;30.66;nan;96940.19;7392577;19;20014;-90
2024/03/01 07:59:48;;;;;;;0.20;0.20;;;;;;;30.38;nan;96938.81;7396695;19;20037;-90
2024/03/01 08:02:14;;;;;;;0.20;0.20;;;;;;;30.52;nan;96930.50;7398178;19;20010;-90
2024/03/01 08:04:40;;;;;;;0.35;0.35;;;;;;;30.50;nan;96921.84;7392821;19;20042;-90
2024/03/01 08:07:13;;;;;;;0.10;0.10;;;;;;;30.64;nan;96920.03;7393408;19;20019;-89
2024/03/01 08:09:42;;;;;;;0.40;0.40;;;;;;;30.55;nan;96911.91;7394217;19;20018;-90
2024/03/01 08:12:13;;;;;;;0.65;0.65;;;;;;;30.54;nan;96904.69;7396613;19;20014;-90
2024/03/01 08:14:39;;;;;;;0.77;0.60;;;;;;;30.76;nan;96895.81;7392055;19;20477;-89
2024/03/01 08:17:06;;;;;;;0.43;0.30;;;;;;;30.92;nan;96890.44;7392557;19;20022;-90
2024/03/01 08:19:50;;;;;;;2.30;0.55;;;;;;;31.13;nan;96880.75;7393172;19;20055;-90
2024/03/01 08:22:20;;;;;;;0.60;0.60;;;;;;;31.06;nan;96877.03;7398025;19;20044;-90
2024/03/01 08:24:48;;;;;;;0.30;0.30;;;;;;;30.98;nan;96871.16;7390136;19;20356;-90
2024/03/01 08:27:16;;;;;;;0.30;0.20;;;;;;;30.81;nan;96869.34;7392229;19;20483;-90
2024/03/01 08:29:43;;;;;;;0.17;0.17;;;;;;;30.85;nan;96852.19;7391513;19;20015;-90
2024/03/01 08:32:28;;;;;;;0.43;0.43;;;;;;;30.78;nan;96847.00;7394987;19;20022;-89
2024/03/01 08:34:57;;;;;;;0.63;0.63;;;;;;;30.88;nan;96836.47;7392349;19;20029;-89
2024/03/01 08:37:25;;;;;;;0.63;0.63;;;;;;;30.86;nan;96836.44;7391845;19;20014;-93
2024/03/01 08:39:55;;;;;;;0.95;0.30;;;;;;;31.33;nan;96838.00;7393425;19;20026;-90
2024/03/01 08:42:24;;;;;;;0.30;0.30;;;;;;;31.40;nan;96845.31;7395704;19;20027;-87
2024/03/01 08:44:59;;;;;;;0.20;0.20;;;;;;;31.22;nan;96837.09;7389488;19;20014;-90
2024/03/01 08:47:26;;;;;;;0.10;0.10;;;;;;;31.42;nan;96834.56;7388144;19;20018;-87
2024/03/01 08:49:52;;;;;;;0.30;0.30;;;;;;;31.57;nan;96829.06;7387540;19;20026;-86
2024/03/01 08:52:33;;;;;;;0.40;0.40;;;;;;;31.51;nan;96831.84;7385160;19;20011;-86
2024/03/01 08:55:09;;;;;;;0.40;0.40;;;;;;;31.54;nan;96827.56;7393548;19;20018;-89
2024/03/01 08:57:37;;;;;;;0.30;0.25;;;;;;;31.58;nan;96833.41;7388530;19;20047;-83
2024/03/01 09:00:22;;;;;;;0.40;0.40;;;;;;;31.52;nan;96833.28;7390723;19;20044;-95
2024/03/01 09:02:48;;;;;;;0.38;0.38;;;;;;;31.55;nan;96831.91;7389514;19;20011;-91
2024/03/01 09:05:15;;;;;;;1.08;0.40;;;;;;;31.32;nan;96816.38;7391885;19;20011;-94
2024/03/01 09:07:43;;;;;;;1.00;0.70;;;;;;;31.12;nan;96828.28;7391116;19;20509;-93
2024/03/01 09:10:20;;;;;;;3.05;1.25;;;;;;;31.06;nan;96836.06;7390617;19;20018;-93
2024/03/01 09:12:46;;;;;;;0.10;0.10;;;;;;;31.21;nan;96829.88;7388590;19;20007;-91
2024/03/01 09:15:15;;;;;;;0.10;0.10;;;;;;;31.41;nan;96830.25;7387763;19;20010;-89
2024/03/01 09:17:41;;;;;;;6.50;0.75;;;;;;;31.33;nan;96830.09;7389920;19;20030;-89
2024/03/01 09:20:19;;;;;;;0.65;0.55;;;;;;;31.28;nan;96837.19;7389862;19;20014;-88
2024/03/01 09:22:46;;;;;;;0.35;0.35;;;;;;;31.24;nan;96834.25;7394039;19;20575;-89
2024/03/01 09:25:41;;;;;;;0.20;0.20;;;;;;;31.37;nan;96835.91;7394367;19;20047;-90
2024/03/01 09:28:08;;;;;;;0.95;0.50;;;;;;;31.59;nan;96835.59;7394720;19;20018;-87
2024/03/01 09:30:35;;;;;;;0.15;0.15;;;;;;;31.55;nan;96831.91;7392551;19;20520;-90
2024/03/01 09:33:23;;;;;;;0.10;0.10;;;;;;;31.79;nan;96829.41;7395160;19;20011;-87
2024/03/01 09:35:51;;;;;;;0.10;0.10;;;;;;;31.94;nan;96825.31;7394234;19;20055;-81
2024/03/01 09:38:18;;;;;;;0.40;0.30;;;;;;;31.91;nan;96826.72;7397178;19;20016;-81
2024/03/01 09:40:50;;;;;;;0.13;0.13;;;;;;;31.81;nan;96829.44;7397841;19;20682;-80
2024/03/01 09:43:35;;;;;;;3.30;0.75;;;;;;;31.96;nan;96817.47;7394561;19;20731;-83
2024/03/01 09:46:12;;;;;;;0.40;0.40;;;;;;;32.10;nan;96814.03;7389856;19;20025;-82
2024/03/01 09:48:59;;;;;;;0.28;0.28;;;;;;;31.93;nan;96815.22;7392032;19;20039;-81
2024/03/01 09:51:52;;;;;;;16.17;0.63;;;;;;;31.75;nan;96814.97;7397069;19;20026;-81
2024/03/01 09:54:45;;;;;;;0.30;0.30;;;;;;;31.90;nan;96814.47;7392031;19;20077;-81
2024/03/01 09:57:25;;;;;;;1.95;0.47;;;;;;;31.80;nan;96810.72;7391834;19;20019;-81
2024/03/01 10:00:11;;;;;;;0.28;0.28;;;;;;;32.01;nan;96807.44;7387777;19;20865;-81
2024/03/01 10:02:55;;;;;;;1.20;0.35;;;;;;;32.07;nan;96801.78;7388829;19;20014;-82
2024/03/01 10:05:33;;;;;;;0.33;0.33;;;;;;;32.23;nan;96809.91;7385949;19;20040;-81
2024/03/01 10:08:08;;;;;;;1.15;1.15;;;;;;;32.26;nan;96808.50;7386382;19;20030;-81
2024/03/01 10:10:41;;;;;;;0.28;0.20;;;;;;;32.38;nan;96808.66;7388578;19;20017;-81
2024/03/01 10:13:24;;;;;;;0.20;0.20;;;;;;;32.41;nan;96807.25;7393605;19;20109;-81
2024/03/01 10:16:13;;;;;;;0.20;0.20;;;;;;;32.25;nan;96812.09;7390820;19;20390;-81
2024/03/01 10:18:51;;;;;;;0.40;0.40;;;;;;;32.48;nan;96805.22;7395699;19;20014;-83
2024/03/01 10:21:36;;;;;;;0.45;0.45;;;;;;;32.49;nan;96807.38;7397657;19;20429;-83
2024/03/01 10:24:21;;;;;;;0.10;0.10;;;;;;;32.32;nan;96802.09;7393964;19;20456;-82
2024/03/01 10:26:59;;;;;;;1.23;0.38;;;;;;;32.32;nan;96799.94;7395838;19;20129;-83
2024/03/01 10:29:46;;;;;;;5.22;0.65;;;;;;;32.38;nan;96800.00;7392296;19;20018;-80
2024/03/01 10:32:40;;;;;;;0.20;0.20;;;;;;;32.58;nan;96797.41;7393309;19;20027;-82
2024/03/01 10:35:19;;;;;;;0.47;0.47;;;;;;;32.66;nan;96791.03;7394397;19;20505;-83
2024/03/01 10:37:57;;;;;;;0.40;0.40;;;;;;;32.84;nan;96796.97;7394812;19;20015;-82
2024/03/01 10:40:25;;;;;;;0.20;0.20;;;;;;;32.86;nan;96791.97;7394923;19;20031;-83
2024/03/01 10:43:00;;;;;;;0.30;0.30;;;;;;;33.13;nan;96795.88;7393262;19;20015;-82
2024/03/01 10:45:38;;;;;;;0.32;0.20;;;;;;;33.05;nan;96789.28;7392023;19;20021;-83
2024/03/01 10:48:05;;;;;;;0.38;0.38;;;;;;;32.60;nan;96785.16;7396251;19;20014;-80
2024/03/01 10:50:36;;;;;;;0.10;0.10;;;;;;;32.88;nan;96789.09;7395538;19;20043;-80
2024/03/01 10:53:18;;;;;;;0.22;0.22;;;;;;;32.81;nan;96790.44;7392352;19;20046;-83
2024/03/01 10:55:50;;;;;;;0.40;0.40;;;;;;;32.21;nan;96783.97;7392946;19;20097;-83
2024/03/01 10:58:25;;;;;;;0.22;0.22;;;;;;;32.00;nan;96793.75;7393161;19;20014;-84
2024/03/01 11:00:57;;;;;;;0.20;0.20;;;;;;;32.08;nan;96783.06;7395304;19;20018;-84
2024/03/01 11:03:40;;;;;;;0.20;0.20;;;;;;;31.87;nan;96786.34;7394154;19;20022;-81
2024/03/01 11:06:21;;;;;;;0.10;0.10;;;;;;;31.61;nan;96794.59;7391403;19;20018;-85
2024/03/01 11:08:53;;;;;;;0.30;0.30;;;;;;;31.45;nan;96805.88;7392305;19;20022;-87
2024/03/01 11:11:48;;;;;;;0.63;0.15;;;;;;;31.46;nan;96795.78;7393898;19;20021;-96
2024/03/01 11:14:17;;;;;;;0.20;0.20;;;;;;;31.46;nan;96802.28;7393128;19;20014;-87
2024/03/01 11:16:49;;;;;;;0.17;0.17;;;;;;;31.47;nan;96803.72;7394466;19;20491;-86
2024/03/01 11:19:19;;;;;;;0.20;0.10;;;;;;;31.54;nan;96795.91;7397043;19;20018;-87
2024/03/01 11:21:56;;;;;;;0.20;0.20;;;;;;;31.54;nan;96813.19;7397917;19;20044;-88
2024/03/01 11:24:26;;;;;;;0.30;0.22;;;;;;;31.48;nan;96804.47;7393044;19;20476;-87
2024/03/01 11:26:56;;;;;;;0.20;0.20;;;;;;;31.75;nan;96809.22;7398580;19;20014;-83
2024/03/01 11:29:31;;;;;;;3.72;0.90;;;;;;;32.13;nan;96801.13;7394118;19;20022;-85
2024/03/01 11:32:09;;;;;;;0.20;0.20;;;;;;;32.32;nan;96797.06;7393900;19;20081;-80
2024/03/01 11:34:52;;;;;;;0.63;0.30;;;;;;;32.92;nan;96793.47;7392630;19;20022;-90
2024/03/01 11:37:32;;;;;;;2.08;0.52;;;;;;;32.82;nan;96800.56;7398007;19;20069;-91
2024/03/01 11:40:06;;;;;;;0.55;0.50;;;;;;;32.76;nan;96800.50;7396063;19;20045;-93
2024/03/01 11:46:35;;;;;;;0.50;0.35;;;;;;;32.86;nan;96797.00;7393210;19;20476;-90
2024/03/01 11:49:35;;;;;;;0.45;0.45;;;;;;;33.20;nan;96790.88;7394195;19;20014;-96
2024/03/01 11:52:20;;;;;;;0.55;0.47;;;;;;;33.58;nan;96791.22;7397434;19;20011;-88
2024/03/01 11:55:05;;;;;;;0.38;0.35;;;;;;;33.56;nan;96788.31;7392139;19;20018;-86
2024/03/01 11:57:42;;;;;;;1.65;0.38;;;;;;;33.71;nan;96789.84;7391947;19;20018;-86
2024/03/01 12:00:33;;;;;;;0.70;0.43;;;;;;;33.68;nan;96785.50;7393654;19;20037;-83
2024/03/01 12:03:36;;;;;;;0.25;0.25;;;;;;;33.78;nan;96779.81;7393769;19;20019;-85